Time;durP1;ratioP1;P1;durP2;ratioP2;P2;SDS_P1;SDS_P2;PMS_P1;PMS_P2;Temp;Humidity;BMP_temperature;BMP_pressure;BME280_temperature;BME280_humidity;BME280_pressure;Samples;Min_cycle;Max_cycle;Signal;HPM_P1;HPM_P2
2022/03/27 00:01:52;;;;;;;4.90;2.90;;;8.20;72.00;;;;;;5109800;28;20028;-62
2022/03/27 00:04:18;;;;;;;3.08;2.72;;;8.10;71.90;;;;;;5109181;28;20026;-62
2022/03/27 00:06:43;;;;;;;4.50;2.85;;;8.10;71.60;;;;;;5113218;28;20030;-62
2022/03/27 00:09:09;;;;;;;4.15;2.40;;;8.20;71.10;;;;;;5114107;28;20034;-62
2022/03/27 00:11:35;;;;;;;3.92;2.58;;;8.20;70.40;;;;;;5112055;28;20028;-62
2022/03/27 00:14:05;;;;;;;4.85;3.08;;;8.20;69.80;;;;;;5107790;28;20044;-62
2022/03/27 00:16:32;;;;;;;5.07;2.40;;;8.20;68.80;;;;;;5106398;28;20020;-62
2022/03/27 00:18:57;;;;;;;3.60;2.47;;;8.10;67.40;;;;;;5113298;28;20528;-62
2022/03/27 00:21:23;;;;;;;2.95;2.17;;;8.10;66.30;;;;;;5114273;28;20023;-62
2022/03/27 00:23:50;;;;;;;2.40;1.80;;;8.10;65.70;;;;;;5114529;27;20023;-62
2022/03/27 00:26:16;;;;;;;2.40;2.00;;;8.10;64.80;;;;;;5103923;28;20468;-62
2022/03/27 00:28:43;;;;;;;3.42;2.00;;;8.10;64.30;;;;;;5092306;28;20033;-62
2022/03/27 00:31:10;;;;;;;2.58;2.05;;;8.10;63.50;;;;;;5113998;28;20492;-62
2022/03/27 00:33:37;;;;;;;3.05;2.08;;;8.10;63.10;;;;;;5113966;28;20023;-62
2022/03/27 00:36:05;;;;;;;3.75;2.35;;;8.00;62.50;;;;;;5114151;28;20111;-62
2022/03/27 00:38:32;;;;;;;3.25;2.10;;;8.00;61.80;;;;;;5101384;28;20040;-62
2022/03/27 00:40:59;;;;;;;2.55;2.03;;;7.90;61.50;;;;;;5108144;28;20027;-62
2022/03/27 00:43:26;;;;;;;4.45;2.25;;;7.90;61.30;;;;;;5113845;27;20823;-62
2022/03/27 00:45:51;;;;;;;3.08;1.90;;;7.80;60.90;;;;;;5088075;28;20102;-62
2022/03/27 00:48:19;;;;;;;4.10;1.90;;;7.80;60.50;;;;;;5114044;28;20406;-62
2022/03/27 00:50:52;;;;;;;4.57;2.15;;;7.70;60.30;;;;;;5098463;28;20029;-62
2022/03/27 00:53:19;;;;;;;4.88;2.25;;;7.70;59.50;;;;;;5100816;28;20036;-62
2022/03/27 00:55:45;;;;;;;4.18;2.00;;;7.60;59.00;;;;;;5105444;28;20012;-62
2022/03/27 00:58:12;;;;;;;4.57;2.00;;;7.60;59.00;;;;;;5086269;28;20028;-62
2022/03/27 01:00:38;;;;;;;3.65;1.83;;;7.60;59.20;;;;;;5085438;28;20099;-62
2022/03/27 01:03:17;;;;;;;3.97;1.80;;;7.50;59.40;;;;;;5082375;28;20119;-62
2022/03/27 01:05:45;;;;;;;4.60;1.70;;;7.50;59.70;;;;;;5111408;28;20035;-62
2022/03/27 01:08:12;;;;;;;2.45;1.77;;;7.50;58.90;;;;;;5113251;28;20038;-62
2022/03/27 01:10:39;;;;;;;2.42;2.00;;;7.40;58.50;;;;;;5106890;28;22329;-62
2022/03/27 01:13:14;;;;;;;2.72;1.85;;;7.40;58.60;;;;;;5095547;28;20147;-62
2022/03/27 01:15:51;;;;;;;2.45;1.80;;;7.30;58.00;;;;;;5113246;28;20028;-62
2022/03/27 01:18:17;;;;;;;2.45;1.42;;;7.30;57.80;;;;;;5112671;28;20054;-62
2022/03/27 01:20:42;;;;;;;2.00;1.83;;;7.20;57.90;;;;;;5087465;28;20047;-62
2022/03/27 01:23:10;;;;;;;1.92;1.73;;;7.20;58.00;;;;;;5095574;28;20032;-62
2022/03/27 01:25:37;;;;;;;1.60;1.50;;;7.10;57.40;;;;;;5104433;28;20049;-62
2022/03/27 01:28:05;;;;;;;3.58;2.05;;;7.10;57.30;;;;;;5113207;28;20034;-62
2022/03/27 01:30:31;;;;;;;3.10;1.80;;;7.10;57.70;;;;;;5112349;28;20059;-62
2022/03/27 01:32:57;;;;;;;3.75;1.88;;;7.00;57.00;;;;;;5089130;28;20067;-62
2022/03/27 01:35:23;;;;;;;2.08;1.67;;;7.00;56.90;;;;;;5111168;28;20024;-62
2022/03/27 01:37:49;;;;;;;1.73;1.38;;;6.90;57.10;;;;;;5088293;28;20150;-62
2022/03/27 01:40:17;;;;;;;1.42;1.33;;;6.90;56.60;;;;;;5113000;28;20103;-62
2022/03/27 01:42:43;;;;;;;1.50;1.40;;;6.90;56.10;;;;;;5087585;28;20059;-62
2022/03/27 01:45:09;;;;;;;2.30;1.38;;;6.80;56.00;;;;;;5101510;28;20062;-62
2022/03/27 01:47:36;;;;;;;2.45;1.73;;;6.80;56.00;;;;;;5109982;28;20059;-62
2022/03/27 01:53:24;;;;;;;;;;;6.70;55.30;;;;;;5080880;28;20043;-62
2022/03/27 01:55:49;;;;;;;1.60;1.50;;;6.60;55.80;;;;;;5088205;28;19908;-62
2022/03/27 01:58:15;;;;;;;2.10;1.60;;;6.60;56.40;;;;;;5094658;28;20021;-62
2022/03/27 02:00:43;;;;;;;2.25;1.60;;;6.60;55.90;;;;;;5099256;28;20043;-62
2022/03/27 02:03:10;;;;;;;3.08;1.52;;;6.60;55.60;;;;;;5112830;28;20023;-62
2022/03/27 02:05:35;;;;;;;2.95;1.67;;;6.60;55.30;;;;;;5112895;28;20027;-62
2022/03/27 02:08:01;;;;;;;2.35;1.67;;;6.60;56.10;;;;;;5105812;28;20443;-62
2022/03/27 02:10:27;;;;;;;1.48;1.38;;;6.60;55.40;;;;;;5089016;28;20077;-62
2022/03/27 02:12:52;;;;;;;5.80;1.65;;;6.60;55.40;;;;;;5112986;28;20571;-62
2022/03/27 02:15:18;;;;;;;2.05;1.50;;;6.60;55.60;;;;;;5113166;28;20039;-62
2022/03/27 02:17:44;;;;;;;3.60;1.90;;;6.60;55.40;;;;;;5112893;28;20099;-62
2022/03/27 02:20:10;;;;;;;2.08;1.88;;;6.50;55.30;;;;;;5088002;28;20027;-62
2022/03/27 02:22:36;;;;;;;4.22;1.90;;;6.60;55.10;;;;;;5112993;28;20526;-62
2022/03/27 02:25:05;;;;;;;5.22;1.95;;;6.60;55.00;;;;;;5112777;28;20114;-62
2022/03/27 02:27:31;;;;;;;3.65;2.13;;;6.60;54.70;;;;;;5091058;28;20037;-62
2022/03/27 02:29:56;;;;;;;2.03;1.83;;;6.60;54.50;;;;;;5082696;28;20045;-63
2022/03/27 02:32:22;;;;;;;3.03;2.05;;;6.60;54.60;;;;;;5112544;28;20034;-62
2022/03/27 02:34:48;;;;;;;2.53;2.00;;;6.60;54.60;;;;;;5112566;28;20096;-63
2022/03/27 02:37:14;;;;;;;3.20;2.00;;;6.60;54.50;;;;;;5097625;28;20122;-62
2022/03/27 02:39:41;;;;;;;4.55;1.75;;;6.60;55.20;;;;;;5102205;28;20482;-62
2022/03/27 02:42:07;;;;;;;5.10;2.13;;;6.70;55.20;;;;;;5113805;28;20492;-62
2022/03/27 02:44:33;;;;;;;2.03;1.88;;;6.70;54.60;;;;;;5095758;28;20480;-62
2022/03/27 02:46:59;;;;;;;2.88;2.20;;;6.70;54.40;;;;;;5108831;28;20032;-62
2022/03/27 02:49:25;;;;;;;3.25;2.28;;;6.70;53.50;;;;;;5090628;28;20023;-62
2022/03/27 02:51:51;;;;;;;2.72;2.30;;;6.70;52.70;;;;;;5115750;28;20067;-62
2022/03/27 02:54:16;;;;;;;4.75;2.45;;;6.70;52.40;;;;;;5115991;28;20016;-62
2022/03/27 02:56:42;;;;;;;4.93;2.33;;;6.60;52.80;;;;;;5099597;28;20016;-62
2022/03/27 02:59:08;;;;;;;2.28;1.88;;;6.60;52.90;;;;;;5104788;28;20047;-62
2022/03/27 03:01:34;;;;;;;7.20;2.40;;;6.50;53.10;;;;;;5081574;28;20035;-62
2022/03/27 03:03:59;;;;;;;3.72;2.10;;;6.50;53.40;;;;;;5101660;28;20081;-62
2022/03/27 03:06:25;;;;;;;6.10;2.40;;;6.40;53.70;;;;;;5106503;28;20070;-62
2022/03/27 03:08:51;;;;;;;4.95;2.22;;;6.40;53.40;;;;;;5088423;28;20111;-62
2022/03/27 03:11:20;;;;;;;5.13;2.13;;;6.40;53.70;;;;;;5115725;28;20504;-62
2022/03/27 03:13:47;;;;;;;5.38;2.40;;;6.30;53.70;;;;;;5115556;28;20027;-62
2022/03/27 03:16:15;;;;;;;5.75;2.25;;;6.30;53.30;;;;;;5115722;27;20470;-62
2022/03/27 03:18:42;;;;;;;5.63;2.20;;;6.30;53.20;;;;;;5091724;28;20376;-62
2022/03/27 03:21:08;;;;;;;4.82;2.65;;;6.30;53.70;;;;;;5115468;27;20026;-62
2022/03/27 03:23:34;;;;;;;2.45;2.25;;;6.30;53.90;;;;;;5115371;28;20028;-62
2022/03/27 03:26:00;;;;;;;3.38;2.45;;;6.20;53.50;;;;;;5115493;28;20049;-62
2022/03/27 03:28:26;;;;;;;3.35;2.40;;;6.20;53.10;;;;;;5087934;28;20472;-62
2022/03/27 03:30:52;;;;;;;3.65;2.60;;;6.20;52.50;;;;;;5101587;28;20033;-62
2022/03/27 03:33:19;;;;;;;3.75;2.40;;;6.20;52.40;;;;;;5105905;28;20514;-62
2022/03/27 03:35:45;;;;;;;4.40;2.50;;;6.20;52.70;;;;;;5097945;28;20025;-62
2022/03/27 03:38:11;;;;;;;4.60;2.20;;;6.20;52.90;;;;;;5104470;28;20072;-62
2022/03/27 03:40:37;;;;;;;3.42;2.53;;;6.20;53.10;;;;;;5114951;28;20038;-62
2022/03/27 03:43:03;;;;;;;5.65;2.65;;;6.20;53.00;;;;;;5115157;28;20387;-62
2022/03/27 03:45:29;;;;;;;3.85;2.20;;;6.20;53.30;;;;;;5111510;28;20032;-62
2022/03/27 03:47:55;;;;;;;5.90;2.50;;;6.20;53.10;;;;;;5091472;28;20035;-62
2022/03/27 03:50:21;;;;;;;6.35;2.53;;;6.20;52.80;;;;;;5114698;28;20063;-62
2022/03/27 03:52:47;;;;;;;6.88;2.90;;;6.20;52.90;;;;;;5104516;28;20035;-62
2022/03/27 03:55:12;;;;;;;5.20;2.53;;;6.20;53.80;;;;;;5107834;28;20024;-62
2022/03/27 03:57:38;;;;;;;6.00;2.60;;;6.20;54.20;;;;;;5106692;28;20015;-62
2022/03/27 04:00:04;;;;;;;5.30;2.72;;;6.10;54.70;;;;;;5106433;28;20027;-62
2022/03/27 04:02:30;;;;;;;3.20;2.38;;;6.20;55.50;;;;;;5108548;28;20035;-63
2022/03/27 04:04:56;;;;;;;4.55;2.42;;;6.20;55.30;;;;;;5114839;28;20073;-62
2022/03/27 04:07:21;;;;;;;2.38;2.13;;;6.20;55.60;;;;;;5087992;28;20048;-62
2022/03/27 04:09:47;;;;;;;5.03;2.40;;;6.20;55.80;;;;;;5092940;28;20407;-62
2022/03/27 04:12:12;;;;;;;5.90;1.98;;;6.20;56.10;;;;;;5105149;28;20035;-62
2022/03/27 04:14:39;;;;;;;3.95;2.20;;;6.10;55.70;;;;;;5114398;28;20380;-62
2022/03/27 04:17:05;;;;;;;3.88;1.80;;;6.10;55.70;;;;;;5090422;28;20021;-62
2022/03/27 04:19:30;;;;;;;2.85;2.17;;;6.10;55.70;;;;;;5114211;28;20035;-63
2022/03/27 04:21:57;;;;;;;3.40;2.40;;;6.10;55.90;;;;;;5108102;28;20636;-62
2022/03/27 04:24:23;;;;;;;4.38;2.28;;;6.00;56.10;;;;;;5084556;28;20097;-62
2022/03/27 04:26:48;;;;;;;3.15;2.15;;;6.00;56.40;;;;;;5082955;28;20028;-62
2022/03/27 04:29:14;;;;;;;2.58;1.80;;;6.00;56.40;;;;;;5100267;28;20031;-62
2022/03/27 04:31:40;;;;;;;3.67;2.10;;;6.00;56.30;;;;;;5113813;28;20035;-63
2022/03/27 04:34:07;;;;;;;2.55;1.80;;;6.00;56.50;;;;;;5113891;28;20027;-62
2022/03/27 04:36:32;;;;;;;3.85;2.20;;;6.00;56.40;;;;;;5094907;28;20508;-62
2022/03/27 04:38:58;;;;;;;3.22;2.13;;;6.00;56.90;;;;;;5107082;28;20099;-62
2022/03/27 04:41:24;;;;;;;3.47;2.05;;;6.00;56.90;;;;;;5109975;28;20031;-62
2022/03/27 04:43:50;;;;;;;3.58;1.60;;;6.00;56.70;;;;;;5089619;28;20078;-62
2022/03/27 04:46:17;;;;;;;4.70;2.47;;;6.00;56.80;;;;;;5090355;28;20026;-62
2022/03/27 04:48:43;;;;;;;2.20;2.00;;;6.00;57.20;;;;;;5113478;28;20016;-62
2022/03/27 04:51:09;;;;;;;2.65;2.08;;;6.00;57.60;;;;;;5113572;28;20066;-63
2022/03/27 04:53:35;;;;;;;2.70;1.83;;;6.00;57.80;;;;;;5113302;28;20066;-62
2022/03/27 04:56:00;;;;;;;3.50;2.00;;;6.00;58.00;;;;;;5094303;28;20391;-62
2022/03/27 04:58:26;;;;;;;3.47;1.90;;;6.00;57.70;;;;;;5113520;28;20022;-62
2022/03/27 05:00:51;;;;;;;2.38;1.90;;;6.00;57.70;;;;;;5099595;28;20020;-62
2022/03/27 05:03:17;;;;;;;4.25;2.00;;;6.00;57.10;;;;;;5113239;28;20032;-63
2022/03/27 05:05:43;;;;;;;4.75;1.73;;;6.00;56.90;;;;;;5089515;28;20028;-62
2022/03/27 05:08:10;;;;;;;6.38;2.50;;;6.00;57.00;;;;;;5113727;28;20501;-62
2022/03/27 05:10:35;;;;;;;3.17;1.88;;;6.00;56.70;;;;;;5113230;28;20102;-62
2022/03/27 05:13:01;;;;;;;3.13;1.70;;;5.90;56.70;;;;;;5113412;28;20149;-63
2022/03/27 05:15:27;;;;;;;4.55;2.00;;;5.90;57.20;;;;;;5097048;28;20020;-63
2022/03/27 05:17:55;;;;;;;6.53;2.10;;;5.90;57.70;;;;;;5096020;28;20031;-62
2022/03/27 05:20:21;;;;;;;2.05;1.77;;;5.80;58.80;;;;;;5113540;28;20119;-62
2022/03/27 05:22:47;;;;;;;1.67;1.58;;;5.70;60.70;;;;;;5113271;28;20019;-62
2022/03/27 05:25:15;;;;;;;1.63;1.50;;;5.50;60.40;;;;;;5091247;28;20044;-62
2022/03/27 05:27:52;;;;;;;1.55;1.40;;;5.40;60.40;;;;;;5111941;28;20035;-62
2022/03/27 05:30:19;;;;;;;1.77;1.55;;;5.30;60.00;;;;;;5113487;28;20062;-62
2022/03/27 05:32:46;;;;;;;1.73;1.30;;;5.20;59.70;;;;;;5111719;28;20020;-62
2022/03/27 05:35:12;;;;;;;1.73;1.63;;;5.20;59.60;;;;;;5086561;28;20051;-62
2022/03/27 05:37:39;;;;;;;2.88;1.92;;;5.30;60.20;;;;;;5088570;28;20043;-62
2022/03/27 05:40:07;;;;;;;1.88;1.77;;;5.30;59.70;;;;;;5113353;28;20476;-62
2022/03/27 05:42:32;;;;;;;2.45;1.83;;;5.40;59.60;;;;;;5112804;28;20034;-62
2022/03/27 05:44:59;;;;;;;1.33;1.33;;;5.50;59.10;;;;;;5096087;28;20032;-62
2022/03/27 05:47:26;;;;;;;1.92;1.77;;;5.50;58.70;;;;;;5104802;28;20038;-62
2022/03/27 05:49:51;;;;;;;1.67;1.50;;;5.70;58.70;;;;;;5112873;28;20027;-62
2022/03/27 05:52:17;;;;;;;3.28;1.85;;;5.90;58.00;;;;;;5108804;28;20392;-62
2022/03/27 05:54:43;;;;;;;1.90;1.60;;;6.00;57.20;;;;;;5089647;28;20036;-62
2022/03/27 05:57:09;;;;;;;2.15;1.48;;;6.00;56.70;;;;;;5105595;28;20023;-62
2022/03/27 05:59:34;;;;;;;1.70;1.40;;;6.00;56.60;;;;;;5104684;28;20145;-62
2022/03/27 06:02:00;;;;;;;1.75;1.65;;;6.00;56.60;;;;;;5113157;28;20475;-64
2022/03/27 06:04:26;;;;;;;2.15;1.60;;;6.00;56.30;;;;;;5087147;28;20607;-63
2022/03/27 06:06:52;;;;;;;3.70;1.75;;;5.90;56.20;;;;;;5112819;28;20037;-63
2022/03/27 06:09:18;;;;;;;4.03;1.60;;;5.90;56.70;;;;;;5085454;28;20019;-63
2022/03/27 06:11:43;;;;;;;2.17;1.58;;;5.80;57.20;;;;;;5112682;28;20030;-63
2022/03/27 06:14:09;;;;;;;1.60;1.50;;;5.70;57.60;;;;;;5090354;28;20019;-63
2022/03/27 06:16:35;;;;;;;2.15;1.60;;;5.60;57.90;;;;;;5099912;28;20459;-63
2022/03/27 06:19:00;;;;;;;2.13;1.70;;;5.50;58.40;;;;;;5105863;28;20062;-63
2022/03/27 06:21:26;;;;;;;1.60;1.50;;;5.50;58.60;;;;;;5108217;28;20028;-63
2022/03/27 06:23:52;;;;;;;3.85;1.98;;;5.50;59.00;;;;;;5110169;28;20020;-63
2022/03/27 06:26:17;;;;;;;1.90;1.80;;;5.50;59.20;;;;;;5095077;28;20051;-63
2022/03/27 06:28:43;;;;;;;3.70;1.63;;;5.40;58.90;;;;;;5116486;28;20024;-63
2022/03/27 06:31:09;;;;;;;2.03;1.30;;;5.50;59.00;;;;;;5110387;28;20051;-63
2022/03/27 06:33:34;;;;;;;2.40;1.40;;;5.40;59.10;;;;;;5101753;28;20106;-63
2022/03/27 06:36:01;;;;;;;2.78;1.50;;;5.40;59.30;;;;;;5116048;28;20032;-63
2022/03/27 06:38:28;;;;;;;5.18;1.90;;;5.40;59.20;;;;;;5116259;28;20043;-63
2022/03/27 06:40:55;;;;;;;1.50;1.40;;;5.40;58.80;;;;;;5084338;28;20033;-64
2022/03/27 06:43:22;;;;;;;1.90;1.67;;;5.50;59.20;;;;;;5092199;28;20027;-63
2022/03/27 06:45:49;;;;;;;2.20;1.42;;;5.50;58.90;;;;;;5116193;28;20558;-63
2022/03/27 06:48:16;;;;;;;1.90;1.58;;;5.50;59.00;;;;;;5103950;28;20054;-63
2022/03/27 06:50:44;;;;;;;2.30;1.65;;;5.50;58.70;;;;;;5115982;28;20095;-62
2022/03/27 06:53:11;;;;;;;2.35;1.70;;;5.50;58.60;;;;;;5096412;28;20485;-63
2022/03/27 06:55:37;;;;;;;2.42;1.67;;;5.60;58.70;;;;;;5103859;28;20085;-63
2022/03/27 06:58:03;;;;;;;2.10;2.00;;;5.60;58.60;;;;;;5116134;28;20055;-63
2022/03/27 07:03:13;;;;;;;2.28;2.08;;;5.90;59.10;;;;;;5083093;28;20382;-63
2022/03/27 07:05:43;;;;;;;1.73;1.63;;;6.00;58.20;;;;;;5103371;28;20028;-63
2022/03/27 07:08:12;;;;;;;1.80;1.67;;;6.20;57.80;;;;;;5114978;28;20047;-66
2022/03/27 07:10:38;;;;;;;2.05;1.60;;;6.20;57.40;;;;;;5115928;28;20072;-63
2022/03/27 07:13:08;;;;;;;2.80;1.70;;;6.20;57.50;;;;;;5089911;28;20044;-63
2022/03/27 07:15:35;;;;;;;1.65;1.50;;;6.20;57.50;;;;;;5104583;28;20031;-63
2022/03/27 07:18:01;;;;;;;2.53;1.70;;;6.10;57.40;;;;;;5114308;28;20024;-63
2022/03/27 07:20:29;;;;;;;3.40;1.85;;;6.10;57.80;;;;;;5115652;28;20020;-63
2022/03/27 07:22:58;;;;;;;1.60;1.48;;;6.10;58.30;;;;;;5087117;27;20020;-63
2022/03/27 07:25:26;;;;;;;2.00;1.90;;;6.00;58.60;;;;;;5115428;28;20089;-63
2022/03/27 07:27:53;;;;;;;1.58;1.48;;;6.10;58.90;;;;;;5103649;28;20034;-64
2022/03/27 07:30:19;;;;;;;2.20;1.83;;;6.10;58.80;;;;;;5093882;28;20032;-62
2022/03/27 07:32:45;;;;;;;2.85;1.73;;;6.10;58.80;;;;;;5091410;28;20069;-62
2022/03/27 07:35:14;;;;;;;2.80;1.85;;;6.00;58.90;;;;;;5115382;28;20043;-63
2022/03/27 07:37:44;;;;;;;3.35;1.77;;;6.00;58.90;;;;;;5114815;28;20130;-63
2022/03/27 07:40:11;;;;;;;2.20;2.00;;;5.90;59.90;;;;;;5109430;28;20027;-62
2022/03/27 07:42:40;;;;;;;2.78;1.83;;;5.70;61.90;;;;;;5092638;28;20047;-63
2022/03/27 07:45:06;;;;;;;1.80;1.70;;;5.50;63.80;;;;;;5114915;28;20383;-63
2022/03/27 07:47:33;;;;;;;2.10;1.90;;;5.20;65.30;;;;;;5114912;28;20034;-63
2022/03/27 07:49:59;;;;;;;2.30;2.10;;;4.90;66.50;;;;;;5102275;28;20489;-63
2022/03/27 07:52:26;;;;;;;1.92;1.73;;;4.70;67.70;;;;;;5075901;28;20059;-63
2022/03/27 07:54:52;;;;;;;2.40;1.65;;;4.50;68.30;;;;;;5092812;28;20388;-63
2022/03/27 07:57:20;;;;;;;1.80;1.70;;;4.40;68.40;;;;;;5114792;28;20019;-63
2022/03/27 07:59:49;;;;;;;1.80;1.70;;;4.40;68.70;;;;;;5115020;28;20472;-63
2022/03/27 08:02:18;;;;;;;1.98;1.80;;;4.40;68.30;;;;;;5094326;28;20408;-63
2022/03/27 08:04:45;;;;;;;1.92;1.83;;;4.50;68.00;;;;;;5093976;28;20020;-63
2022/03/27 08:07:11;;;;;;;2.65;1.85;;;4.70;67.50;;;;;;5097592;28;20103;-63
2022/03/27 08:09:37;;;;;;;1.80;1.70;;;4.80;66.60;;;;;;5107636;28;20104;-63
2022/03/27 08:12:04;;;;;;;1.98;1.88;;;4.90;65.70;;;;;;5098158;28;20082;-63
2022/03/27 08:14:31;;;;;;;1.90;1.80;;;5.00;64.50;;;;;;5105914;28;20384;-63
2022/03/27 08:17:00;;;;;;;1.60;1.50;;;5.00;62.70;;;;;;5111696;28;20445;-63
2022/03/27 08:19:26;;;;;;;2.85;1.50;;;5.10;62.10;;;;;;5096395;28;21181;-63
2022/03/27 08:21:53;;;;;;;1.38;1.38;;;5.10;61.60;;;;;;5101625;28;20032;-63
2022/03/27 08:24:20;;;;;;;1.60;1.58;;;5.10;61.10;;;;;;5081340;28;20404;-63
2022/03/27 08:27:03;;;;;;;1.63;1.63;;;5.20;60.90;;;;;;5113446;28;20027;-63
2022/03/27 08:29:35;;;;;;;1.73;1.63;;;5.20;60.40;;;;;;5100275;28;20140;-63
2022/03/27 08:32:04;;;;;;;1.90;1.80;;;5.20;60.40;;;;;;5101543;28;20628;-63
2022/03/27 08:34:32;;;;;;;1.92;1.83;;;5.30;60.40;;;;;;5110725;28;20028;-63
2022/03/27 08:37:01;;;;;;;1.63;1.58;;;5.30;60.40;;;;;;5113153;28;20411;-63
2022/03/27 08:39:27;;;;;;;1.60;1.60;;;5.40;60.10;;;;;;5109676;28;20026;-63
2022/03/27 08:41:55;;;;;;;1.38;1.38;;;5.40;59.40;;;;;;5095857;28;20107;-63
2022/03/27 08:44:22;;;;;;;1.70;1.60;;;5.50;59.20;;;;;;5098429;28;20039;-63
2022/03/27 08:46:50;;;;;;;2.00;1.77;;;5.60;58.50;;;;;;5111984;28;20028;-63
2022/03/27 08:49:39;;;;;;;4.75;1.95;;;5.60;58.00;;;;;;5113882;28;20483;-63
2022/03/27 08:52:17;;;;;;;1.92;1.75;;;5.60;57.20;;;;;;5081634;28;20492;-63
2022/03/27 08:54:59;;;;;;;2.78;1.65;;;5.60;57.40;;;;;;5103235;28;20020;-63
2022/03/27 08:57:37;;;;;;;;;;;5.60;57.30;;;;;;5111003;28;20035;-63
2022/03/27 09:00:06;;;;;;;1.77;1.67;;;5.50;57.10;;;;;;5089267;28;19908;-63
2022/03/27 09:02:32;;;;;;;1.80;1.70;;;5.60;57.50;;;;;;5112803;28;20020;-62
2022/03/27 09:04:59;;;;;;;1.88;1.58;;;5.60;57.50;;;;;;5113663;28;20024;-63
2022/03/27 09:07:28;;;;;;;1.60;1.50;;;5.60;56.90;;;;;;5113823;28;20550;-63
2022/03/27 09:09:56;;;;;;;2.70;1.63;;;5.60;57.10;;;;;;5091470;28;20387;-63
2022/03/27 09:12:22;;;;;;;1.98;1.77;;;5.70;57.20;;;;;;5113555;28;20030;-63
2022/03/27 09:14:49;;;;;;;1.85;1.70;;;5.80;57.40;;;;;;5103477;28;20017;-63
2022/03/27 09:17:15;;;;;;;1.60;1.50;;;5.90;56.70;;;;;;5092106;28;20019;-64
2022/03/27 09:19:46;;;;;;;2.53;1.75;;;5.90;56.90;;;;;;5082639;28;20025;-63
2022/03/27 09:22:29;;;;;;;1.80;1.70;;;5.90;56.00;;;;;;5113276;28;20020;-62
2022/03/27 09:25:01;;;;;;;2.30;1.55;;;5.90;55.50;;;;;;5112726;28;20032;-61
2022/03/27 09:27:32;;;;;;;1.90;1.80;;;5.80;55.30;;;;;;5113008;28;20016;-61
2022/03/27 09:30:00;;;;;;;1.92;1.83;;;5.80;55.10;;;;;;5088321;28;20044;-61
2022/03/27 09:32:28;;;;;;;2.10;1.90;;;5.70;54.40;;;;;;5095193;28;20023;-61
2022/03/27 09:35:17;;;;;;;1.70;1.60;;;5.70;54.10;;;;;;5106872;28;20020;-62
2022/03/27 09:37:46;;;;;;;1.60;1.50;;;5.70;54.80;;;;;;5110752;28;20047;-62
2022/03/27 09:40:13;;;;;;;1.83;1.55;;;5.80;54.20;;;;;;5099799;28;20031;-62
2022/03/27 09:42:40;;;;;;;3.58;1.80;;;5.80;54.00;;;;;;5112899;28;20019;-62
2022/03/27 09:45:15;;;;;;;1.88;1.70;;;5.80;54.80;;;;;;5112854;28;20027;-63
2022/03/27 09:47:43;;;;;;;2.20;1.80;;;5.70;56.80;;;;;;5112733;28;20450;-62
2022/03/27 09:50:28;;;;;;;1.85;1.60;;;5.50;56.90;;;;;;5094967;28;20023;-62
2022/03/27 09:53:23;;;;;;;1.70;1.60;;;5.40;56.50;;;;;;5091862;28;20079;-62
2022/03/27 09:56:11;;;;;;;1.48;1.48;;;5.40;56.10;;;;;;5089509;28;20180;-63
2022/03/27 09:58:38;;;;;;;1.77;1.60;;;5.40;55.20;;;;;;5107374;28;20027;-62
2022/03/27 10:01:14;;;;;;;1.50;1.50;;;5.50;55.00;;;;;;5098290;28;20019;-62
2022/03/27 10:04:00;;;;;;;2.45;1.40;;;5.50;54.20;;;;;;5116575;28;20028;-62
2022/03/27 10:06:36;;;;;;;1.67;1.58;;;5.60;53.30;;;;;;5098033;28;20020;-62
2022/03/27 10:09:07;;;;;;;1.67;1.58;;;5.70;52.60;;;;;;5093850;28;20496;-62
2022/03/27 10:11:34;;;;;;;2.28;1.73;;;5.70;52.30;;;;;;5116997;27;20103;-62
2022/03/27 10:14:03;;;;;;;3.42;2.28;;;5.70;51.30;;;;;;5116688;28;20028;-62
2022/03/27 10:16:34;;;;;;;5.68;2.58;;;5.70;51.40;;;;;;5093334;27;20038;-62
2022/03/27 10:19:05;;;;;;;3.47;2.85;;;5.80;51.30;;;;;;5116560;28;20145;-63
2022/03/27 10:21:32;;;;;;;2.72;2.30;;;5.70;52.20;;;;;;5102696;28;20032;-62
2022/03/27 10:24:12;;;;;;;4.47;2.03;;;5.70;52.80;;;;;;5101490;28;20081;-62
2022/03/27 10:26:39;;;;;;;4.35;1.70;;;5.70;52.50;;;;;;5088127;27;20473;-62
2022/03/27 10:29:08;;;;;;;1.85;1.75;;;5.70;52.70;;;;;;5101628;28;20028;-62
2022/03/27 10:31:34;;;;;;;2.47;1.85;;;5.60;51.60;;;;;;5109377;28;20132;-62
2022/03/27 10:34:02;;;;;;;2.53;1.75;;;5.50;51.60;;;;;;5114962;28;20608;-62
2022/03/27 10:36:37;;;;;;;3.60;1.95;;;5.50;51.00;;;;;;5089716;28;20031;-62
2022/03/27 10:39:28;;;;;;;1.98;1.75;;;5.40;51.10;;;;;;5109406;28;20130;-62
2022/03/27 10:42:19;;;;;;;4.77;1.73;;;5.40;51.30;;;;;;5111315;28;20032;-62
2022/03/27 10:45:18;;;;;;;1.80;1.70;;;5.40;51.70;;;;;;5101986;28;20078;-62
2022/03/27 10:48:11;;;;;;;4.30;2.13;;;5.50;49.80;;;;;;5073012;28;20115;-62
2022/03/27 10:50:52;;;;;;;2.97;2.25;;;5.60;50.00;;;;;;5104761;28;20072;-62
2022/03/27 10:53:22;;;;;;;2.70;1.80;;;5.60;50.70;;;;;;5103115;28;20053;-62
2022/03/27 10:55:50;;;;;;;2.80;1.73;;;5.60;51.20;;;;;;5099819;28;20491;-62
2022/03/27 10:58:31;;;;;;;2.88;1.73;;;5.70;51.70;;;;;;5093123;28;20073;-62
2022/03/27 11:00:59;;;;;;;2.30;1.60;;;5.60;51.80;;;;;;5114468;28;20143;-62
2022/03/27 11:03:49;;;;;;;1.92;1.60;;;5.60;52.10;;;;;;5114985;27;20035;-63
2022/03/27 11:06:37;;;;;;;3.10;2.03;;;5.60;52.10;;;;;;5103779;28;20039;-62
2022/03/27 11:09:06;;;;;;;2.97;2.10;;;5.60;52.00;;;;;;5092297;28;20023;-62
2022/03/27 11:11:38;;;;;;;1.50;1.50;;;5.50;51.70;;;;;;5101895;28;20088;-62
2022/03/27 11:14:08;;;;;;;2.40;1.70;;;5.60;52.20;;;;;;5101065;28;20090;-62
2022/03/27 11:16:53;;;;;;;2.72;1.95;;;5.60;51.70;;;;;;5092813;28;20107;-62
2022/03/27 11:19:43;;;;;;;1.70;1.60;;;5.60;49.90;;;;;;5115290;28;20030;-62
2022/03/27 11:22:47;;;;;;;4.30;1.77;;;5.60;49.30;;;;;;5109973;28;20403;-63
2022/03/27 11:25:37;;;;;;;2.90;1.60;;;5.70;49.90;;;;;;5053162;28;20111;-63
2022/03/27 11:28:03;;;;;;;1.65;1.55;;;5.70;50.20;;;;;;5094727;28;20046;-63
2022/03/27 11:30:30;;;;;;;2.55;1.70;;;5.80;50.30;;;;;;5108272;28;20028;-63
2022/03/27 11:33:13;;;;;;;1.52;1.42;;;5.80;49.20;;;;;;5097101;28;20107;-62
2022/03/27 11:36:04;;;;;;;3.88;1.50;;;5.80;48.70;;;;;;5104485;28;20025;-62
2022/03/27 11:38:55;;;;;;;2.35;1.70;;;5.80;49.10;;;;;;5091932;28;20048;-63
2022/03/27 11:41:24;;;;;;;3.97;1.75;;;5.90;49.00;;;;;;5093783;28;20055;-63
2022/03/27 11:43:51;;;;;;;4.13;1.80;;;5.90;48.40;;;;;;5111987;28;20471;-62
2022/03/27 11:46:27;;;;;;;1.85;1.52;;;5.90;48.50;;;;;;5114577;28;20028;-63
2022/03/27 11:48:59;;;;;;;6.13;2.03;;;6.00;48.40;;;;;;5093346;28;20019;-63
2022/03/27 11:51:25;;;;;;;1.90;1.80;;;6.00;48.00;;;;;;5102644;28;20035;-62
2022/03/27 11:53:56;;;;;;;1.92;1.83;;;6.00;48.20;;;;;;5081114;28;20090;-61
2022/03/27 11:56:24;;;;;;;2.88;1.80;;;6.00;48.20;;;;;;5103430;28;20054;-62
2022/03/27 11:59:12;;;;;;;3.05;1.60;;;6.10;48.30;;;;;;5113412;28;20024;-62
2022/03/27 12:01:39;;;;;;;2.00;1.73;;;6.20;48.80;;;;;;5105118;28;20102;-61
2022/03/27 12:04:06;;;;;;;3.88;2.15;;;6.20;48.30;;;;;;5104706;28;20016;-61
2022/03/27 12:06:32;;;;;;;4.68;2.35;;;6.20;47.80;;;;;;5095855;28;20035;-62
2022/03/27 12:08:58;;;;;;;2.38;1.58;;;6.20;47.50;;;;;;5114326;28;20039;-62
2022/03/27 12:11:26;;;;;;;1.75;1.65;;;6.10;47.00;;;;;;5114316;28;20020;-63
2022/03/27 12:14:08;;;;;;;3.13;1.73;;;6.20;47.80;;;;;;5099109;28;20032;-61
2022/03/27 12:16:34;;;;;;;2.50;1.73;;;6.20;48.00;;;;;;5090671;28;20023;-60
2022/03/27 12:19:13;;;;;;;4.03;2.00;;;6.20;48.50;;;;;;5102025;28;20384;-62
2022/03/27 12:21:46;;;;;;;3.63;2.13;;;6.20;48.60;;;;;;5106935;28;20060;-62
2022/03/27 12:24:16;;;;;;;2.40;2.20;;;6.20;47.50;;;;;;5078244;28;20067;-62
2022/03/27 12:29:40;;;;;;;2.20;2.00;;;6.30;48.00;;;;;;5101210;28;20111;-62
2022/03/27 12:32:13;;;;;;;2.53;2.33;;;6.30;47.70;;;;;;5114093;28;20023;-61
2022/03/27 12:34:46;;;;;;;2.10;2.00;;;6.30;48.10;;;;;;5088942;28;20111;-61
2022/03/27 12:37:16;;;;;;;2.15;1.95;;;6.30;48.00;;;;;;5106870;28;20036;-61
2022/03/27 12:39:48;;;;;;;3.15;1.63;;;6.30;47.90;;;;;;5082249;28;20021;-61
2022/03/27 12:42:39;;;;;;;2.15;1.83;;;6.30;48.00;;;;;;5113905;28;20024;-61
2022/03/27 12:45:21;;;;;;;3.45;1.92;;;6.20;47.40;;;;;;5088345;28;20039;-61
2022/03/27 12:48:18;;;;;;;2.03;1.83;;;6.10;48.00;;;;;;5113253;28;20027;-62
2022/03/27 12:50:49;;;;;;;2.97;1.90;;;6.10;48.20;;;;;;5099499;28;20024;-61
2022/03/27 12:53:26;;;;;;;2.05;1.83;;;6.10;48.50;;;;;;5090396;28;20033;-61
2022/03/27 12:55:56;;;;;;;1.80;1.70;;;6.20;48.60;;;;;;5098627;28;20067;-61
2022/03/27 12:58:39;;;;;;;2.83;2.00;;;6.20;48.80;;;;;;5113550;28;20041;-61
2022/03/27 13:01:17;;;;;;;3.70;1.60;;;6.30;48.40;;;;;;5113513;28;20019;-61
2022/03/27 13:04:06;;;;;;;6.15;2.10;;;6.30;48.20;;;;;;5105369;28;20104;-62
2022/03/27 13:06:44;;;;;;;2.10;1.80;;;6.20;47.50;;;;;;5103181;28;20065;-62
2022/03/27 13:09:23;;;;;;;2.92;1.67;;;6.20;47.80;;;;;;5113533;28;20019;-62
2022/03/27 13:11:50;;;;;;;2.45;1.70;;;6.20;47.20;;;;;;5113251;28;20016;-61
2022/03/27 13:14:16;;;;;;;1.80;1.70;;;6.20;46.50;;;;;;5084159;28;20024;-62
2022/03/27 13:16:50;;;;;;;5.43;1.88;;;6.30;46.50;;;;;;5103125;28;20023;-62
2022/03/27 13:19:21;;;;;;;2.40;1.70;;;6.30;46.60;;;;;;5113148;27;20087;-62